Terminal Aerodrome Forecast
Issued by NWS Tiyan, Guam

Home | Current Version | Previous Version | Text Only | Print | Product List | Glossary On
Versions: 1 2 3 4 5 6 7 8 9 10 11 12 13 14 15 16 17
000
FTPQ31 PGUM 270524
TAFGUM
TAF
PGUM 270524Z 2706/2812 10015G22KT P6SM VCSH FEW015 SCT025
     FM270900 09010KT P6SM VCSH FEW015 SCT025=

USA.gov is the U.S. government's official web portal to all federal, state and local government web resources and services.